Unity Plaza, Connecticut
Current Conditions -  °F | °C
As of 8:53 PM on Sunday 21 Dec 2014 (Local Time) from KHFD Reporting Station
Light Snow Light Snow  
Wind Chill: 28°   Ceiling: 1800
Heat Index: 34°   Visibility: 5mi
Dew Point: 30°   Wind: 7mph
Humidity: 85%   Direction: 10°N
Pressure: 30.36"   Gusts: NA
Location:  41.7893°N, 72.6669°W
Report Text: KHFD 220153Z 01006KT 5SM -SN BR OVC018 01/M01 A3036 RMK AO2 SNB52 SLP279 P0000 T00111011
Loading
Personal Weather Stations






























Interactive Weather Map New forecast layout! Learn more

10-Day Weather Forecast

Advertisements
Track Severe Weather on mobile